createdAt,value
2019-05-14T00:02:32.165Z,12.84
2019-05-14T00:05:03.882Z,12.95
2019-05-14T00:07:35.622Z,12.75
2019-05-14T00:10:08.180Z,12.71
2019-05-14T00:12:41.837Z,12.58
2019-05-14T00:15:13.352Z,12.62
2019-05-14T00:17:45.087Z,12.63
2019-05-14T00:20:17.913Z,12.60
2019-05-14T00:22:49.301Z,12.57
2019-05-14T00:25:22.035Z,12.60
2019-05-14T00:27:53.764Z,12.47
2019-05-14T00:30:25.737Z,12.44
2019-05-14T00:32:57.441Z,12.35
2019-05-14T00:35:31.984Z,12.41
2019-05-14T00:38:02.762Z,12.30
2019-05-14T00:40:34.380Z,12.31
2019-05-14T00:43:06.094Z,12.31
2019-05-14T00:45:37.641Z,12.20
2019-05-14T00:48:09.616Z,12.21
2019-05-14T00:50:42.092Z,12.26
2019-05-14T00:53:14.104Z,12.12
2019-05-14T00:55:46.101Z,12.22
2019-05-14T00:58:17.944Z,12.26
2019-05-14T01:00:52.561Z,12.18
2019-05-14T01:03:24.631Z,12.24
2019-05-14T01:05:56.238Z,12.30
2019-05-14T01:08:27.622Z,12.27
2019-05-14T01:11:01.413Z,12.09
2019-05-14T01:13:33.083Z,12.08
2019-05-14T01:16:04.759Z,11.96
2019-05-14T01:18:36.591Z,12.03
2019-05-14T01:21:08.442Z,12.10
2019-05-14T01:23:41.518Z,12.08
2019-05-14T01:26:12.349Z,12.12
2019-05-14T01:28:43.911Z,12.21
2019-05-14T01:31:15.513Z,12.19
2019-05-14T01:33:47.437Z,12.27
2019-05-14T01:36:21.329Z,12.39
2019-05-14T01:38:51.539Z,12.44
2019-05-14T01:41:23.075Z,12.48
2019-05-14T01:43:55.180Z,12.52
2019-05-14T01:46:27.089Z,12.56
2019-05-14T01:49:01.363Z,12.55
2019-05-14T01:51:32.384Z,12.71
2019-05-14T01:54:04.067Z,12.70
2019-05-14T01:56:35.809Z,12.79
2019-05-14T01:59:07.578Z,12.91
2019-05-14T02:01:41.500Z,12.94
2019-05-14T02:04:13.020Z,12.99
2019-05-14T02:06:47.844Z,13.06
2019-05-14T02:09:21.533Z,13.07
2019-05-14T02:11:53.110Z,13.07
2019-05-14T02:14:25.132Z,13.02
2019-05-14T02:16:56.783Z,13.21
2019-05-14T02:19:28.666Z,13.13
2019-05-14T02:22:02.046Z,13.18
2019-05-14T02:24:34.112Z,13.19
2019-05-14T02:27:05.608Z,13.22
2019-05-14T02:29:37.478Z,13.23
2019-05-14T02:32:10.541Z,13.23
2019-05-14T02:34:42.271Z,13.17
2019-05-14T02:37:13.998Z,13.20
2019-05-14T02:39:45.650Z,12.84
2019-05-14T02:42:19.761Z,13.00
2019-05-14T02:44:49.541Z,12.90
2019-05-14T02:47:21.042Z,12.94
2019-05-14T02:49:52.651Z,12.84
2019-05-14T02:52:25.326Z,12.90
2019-05-14T02:54:59.688Z,13.02
2019-05-14T02:57:30.583Z,13.02
2019-05-14T03:00:02.438Z,12.91
2019-05-14T03:02:34.149Z,12.90
2019-05-14T03:05:09.546Z,12.87
2019-05-14T03:07:40.015Z,12.98
2019-05-14T03:10:12.178Z,13.05
2019-05-14T03:12:43.927Z,12.97
2019-05-14T03:15:16.127Z,12.97
2019-05-14T03:17:49.440Z,12.83
2019-05-14T03:20:21.204Z,12.86
2019-05-14T03:23:03.143Z,12.78
2019-05-14T03:25:29.718Z,12.69
2019-05-14T03:28:00.184Z,12.67
2019-05-14T03:30:33.048Z,12.62
2019-05-14T03:33:04.910Z,12.72
2019-05-14T03:35:44.584Z,12.73
2019-05-14T03:38:09.406Z,12.50
2019-05-14T03:40:41.262Z,12.58
2019-05-14T03:43:12.742Z,12.50
2019-05-14T03:45:44.672Z,12.50
2019-05-14T03:48:19.136Z,12.25
2019-05-14T03:50:50.087Z,12.40
2019-05-14T03:53:21.876Z,12.17
2019-05-14T03:55:53.441Z,12.17
2019-05-14T03:58:25.129Z,12.08
2019-05-14T04:01:01.052Z,12.12
2019-05-14T04:03:34.029Z,12.04
2019-05-14T04:06:09.798Z,12.03
2019-05-14T04:08:41.841Z,11.98
2019-05-14T04:11:15.519Z,12.00
2019-05-14T04:13:50.540Z,11.96
2019-05-14T04:16:23.914Z,11.91
2019-05-14T04:18:59.455Z,11.89
2019-05-14T04:21:33.466Z,11.88
2019-05-14T04:24:05.459Z,11.92
2019-05-14T04:26:56.363Z,11.92
2019-05-14T04:29:14.177Z,12.04
2019-05-14T04:31:50.279Z,12.03
2019-05-14T04:34:21.778Z,12.19
2019-05-14T04:36:53.642Z,12.18
2019-05-14T04:39:25.928Z,12.28
2019-05-14T04:42:00.042Z,12.42
2019-05-14T04:44:31.248Z,12.53
2019-05-14T04:47:21.719Z,12.57
2019-05-14T04:49:39.529Z,12.43
2019-05-14T04:52:10.288Z,12.33
2019-05-14T04:54:41.891Z,12.21
2019-05-14T04:57:14.073Z,12.21
2019-05-14T04:59:45.691Z,12.28
2019-05-14T05:02:19.821Z,12.20
2019-05-14T05:04:51.120Z,12.23
2019-05-14T05:07:22.870Z,12.26
2019-05-14T05:09:54.329Z,12.30
2019-05-14T05:12:26.201Z,12.16
2019-05-14T05:14:58.731Z,12.21
2019-05-14T05:17:42.963Z,12.17
2019-05-14T05:20:04.172Z,12.17
2019-05-14T05:22:35.927Z,12.23
2019-05-14T05:25:08.427Z,12.31
2019-05-14T05:27:40.363Z,12.40
2019-05-14T05:30:12.357Z,12.38
2019-05-14T05:32:44.053Z,12.38
2019-05-14T05:35:18.461Z,12.61
2019-05-14T05:37:49.272Z,12.62
2019-05-14T05:40:21.122Z,12.90
2019-05-14T05:42:52.635Z,13.05
2019-05-14T05:45:24.354Z,13.22
2019-05-14T05:47:59.010Z,13.02
2019-05-14T05:50:28.840Z,13.17
2019-05-14T05:53:00.322Z,13.30
2019-05-14T05:55:31.895Z,13.34
2019-05-14T05:58:03.602Z,13.51
2019-05-14T06:00:39.874Z,13.70
2019-05-14T06:03:11.400Z,13.70
2019-05-14T06:05:43.329Z,13.73
2019-05-14T06:08:15.061Z,13.91
2019-05-14T06:10:49.012Z,13.77
2019-05-14T06:13:20.501Z,14.10
2019-05-14T06:15:52.610Z,14.20
2019-05-14T06:18:24.319Z,14.14
2019-05-14T06:20:58.341Z,14.08
2019-05-14T06:23:29.147Z,14.18
2019-05-14T06:26:00.600Z,14.20
2019-05-14T06:28:33.797Z,14.17
2019-05-14T06:31:09.535Z,14.37
2019-05-14T06:33:39.507Z,14.59
2019-05-14T06:36:14.504Z,14.74
2019-05-14T06:38:45.051Z,14.65
2019-05-14T06:41:19.182Z,14.59
2019-05-14T06:43:51.195Z,14.45
2019-05-14T06:46:22.746Z,14.66
2019-05-14T06:48:54.365Z,14.79
2019-05-14T06:51:28.359Z,15.10
2019-05-14T06:53:58.810Z,15.62
2019-05-14T06:56:30.676Z,15.61
2019-05-14T06:59:05.165Z,15.79
2019-05-14T07:01:38.482Z,15.69
2019-05-14T07:04:10.123Z,15.55
2019-05-14T07:06:43.941Z,15.59
2019-05-14T07:09:18.387Z,15.40
2019-05-14T07:11:49.398Z,15.42
2019-05-14T07:14:21.162Z,15.67
2019-05-14T07:16:53.017Z,15.52
2019-05-14T07:19:24.735Z,15.41
2019-05-14T07:21:58.342Z,15.35
2019-05-14T07:24:30.421Z,15.13
2019-05-14T07:27:01.886Z,15.19
2019-05-14T07:29:33.415Z,15.18
2019-05-14T07:32:04.920Z,15.35
2019-05-14T07:34:38.871Z,15.20
2019-05-14T07:37:10.351Z,15.38
2019-05-14T07:39:41.923Z,15.51
2019-05-14T07:42:13.902Z,15.36
2019-05-14T07:44:48.302Z,15.49
2019-05-14T07:47:19.678Z,15.44
2019-05-14T07:49:51.429Z,15.57
2019-05-14T07:52:23.176Z,15.63
2019-05-14T07:54:54.998Z,15.86
2019-05-14T07:57:28.494Z,15.98
2019-05-14T08:00:00.528Z,15.90
2019-05-14T08:02:32.172Z,15.76
2019-05-14T08:05:03.998Z,15.75
2019-05-14T08:07:35.694Z,16.05
2019-05-14T08:10:09.068Z,16.22
2019-05-14T08:12:40.933Z,16.45
2019-05-14T08:15:18.817Z,16.45
2019-05-14T08:17:48.214Z,16.53
2019-05-14T08:20:18.899Z,16.68
2019-05-14T08:22:50.463Z,16.86
2019-05-14T08:25:22.197Z,16.69
2019-05-14T08:27:54.188Z,16.82
2019-05-14T08:30:28.172Z,17.05
2019-05-14T08:32:59.279Z,16.82
2019-05-14T08:35:34.114Z,16.94
2019-05-14T08:38:07.791Z,16.61
2019-05-14T08:40:37.879Z,16.62
2019-05-14T08:43:08.680Z,16.69
2019-05-14T08:45:40.741Z,16.57
2019-05-14T08:48:12.225Z,16.45
2019-05-14T08:50:43.901Z,16.34
2019-05-14T08:53:18.522Z,16.19
2019-05-14T08:55:49.515Z,16.09
2019-05-14T08:58:21.222Z,16.35
2019-05-14T09:00:53.043Z,16.39
2019-05-14T09:03:24.838Z,16.52
2019-05-14T09:06:00.576Z,16.84
2019-05-14T09:08:30.814Z,17.21
2019-05-14T09:11:02.322Z,17.22
2019-05-14T09:13:34.196Z,17.37
2019-05-14T09:16:09.021Z,17.38
2019-05-14T09:18:39.464Z,17.44
2019-05-14T09:21:11.327Z,17.59
2019-05-14T09:23:43.070Z,17.18
2019-05-14T09:26:15.244Z,17.55
2019-05-14T09:28:48.293Z,17.84
2019-05-14T09:31:20.146Z,17.81
2019-05-14T09:33:51.894Z,18.12
2019-05-14T09:36:24.397Z,17.98
2019-05-14T09:38:58.211Z,18.10
2019-05-14T09:41:30.832Z,17.70
2019-05-14T09:44:01.771Z,17.41
2019-05-14T09:46:33.443Z,17.35
2019-05-14T09:49:05.396Z,17.60
2019-05-14T09:51:38.462Z,17.66
2019-05-14T09:54:12.062Z,17.73
2019-05-14T09:56:45.060Z,17.78
2019-05-14T09:59:18.605Z,17.98
2019-05-14T10:01:50.991Z,18.17
2019-05-14T10:04:22.837Z,18.03
2019-05-14T10:06:54.520Z,18.01
2019-05-14T10:09:26.021Z,17.92
2019-05-14T10:11:58.117Z,17.95
2019-05-14T10:14:29.982Z,18.13
2019-05-14T10:17:01.673Z,18.36
2019-05-14T10:19:33.419Z,18.49
2019-05-14T10:22:08.348Z,18.49
2019-05-14T10:24:40.149Z,18.59
2019-05-14T10:27:11.697Z,18.85
2019-05-14T10:29:43.404Z,19.04
2019-05-14T10:32:15.096Z,19.03
2019-05-14T10:34:48.542Z,19.08
2019-05-14T10:37:20.566Z,19.45
2019-05-14T10:39:52.177Z,19.89
2019-05-14T10:42:24.003Z,20.07
2019-05-14T10:44:58.524Z,20.38
2019-05-14T10:47:29.613Z,20.34
2019-05-14T10:50:01.401Z,20.13
2019-05-14T10:52:33.095Z,19.58
2019-05-14T10:55:05.013Z,19.28
2019-05-14T10:57:36.841Z,19.39
2019-05-14T11:00:09.155Z,19.36
2019-05-14T11:02:41.179Z,19.37
2019-05-14T11:05:13.129Z,19.28
2019-05-14T11:07:44.792Z,19.74
2019-05-14T11:10:19.497Z,19.90
2019-05-14T11:12:51.493Z,19.87
2019-05-14T11:15:23.188Z,19.74
2019-05-14T11:17:54.965Z,19.81
2019-05-14T11:20:31.128Z,19.48
2019-05-14T11:23:00.358Z,19.40
2019-05-14T11:25:32.207Z,19.16
2019-05-14T11:28:03.970Z,18.97
2019-05-14T11:30:35.550Z,18.85
2019-05-14T11:33:09.151Z,19.11
2019-05-14T11:35:40.733Z,19.24
2019-05-14T11:38:28.543Z,19.07
2019-05-14T11:40:45.946Z,19.47
2019-05-14T11:43:17.620Z,19.54
2019-05-14T11:45:49.517Z,19.21
2019-05-14T11:48:21.091Z,19.51
2019-05-14T11:50:52.656Z,19.52
2019-05-14T11:53:24.311Z,19.94
2019-05-14T11:55:55.779Z,20.15
2019-05-14T11:58:29.465Z,19.92
2019-05-14T12:01:00.993Z,20.45
2019-05-14T12:03:32.385Z,20.40
2019-05-14T12:06:03.996Z,20.51
2019-05-14T12:08:35.609Z,20.82
2019-05-14T12:11:08.772Z,19.85
2019-05-14T12:13:40.598Z,20.50
2019-05-14T12:16:12.484Z,21.06
2019-05-14T12:18:44.188Z,21.23
2019-05-14T12:21:16.047Z,20.14
2019-05-14T12:23:47.558Z,20.61
2019-05-14T12:26:19.301Z,20.77
2019-05-14T12:28:55.989Z,20.11
2019-05-14T12:31:25.735Z,19.91
2019-05-14T12:33:58.363Z,20.34
2019-05-14T12:36:30.304Z,20.55
2019-05-14T12:39:01.873Z,20.48
2019-05-14T12:41:34.341Z,21.56
2019-05-14T12:44:09.057Z,21.83
2019-05-14T12:46:39.547Z,22.26
2019-05-14T12:49:11.857Z,21.88
2019-05-14T12:51:43.744Z,21.97
2019-05-14T12:54:15.562Z,22.27
2019-05-14T12:56:49.378Z,21.35
2019-05-14T12:59:20.586Z,21.08
2019-05-14T13:01:51.940Z,20.58
2019-05-14T13:04:23.469Z,20.72
2019-05-14T13:06:55.124Z,19.90
2019-05-14T13:09:26.867Z,19.39
2019-05-14T13:11:58.779Z,18.81
2019-05-14T13:14:30.555Z,18.67
2019-05-14T13:17:02.844Z,18.58
2019-05-14T13:19:34.657Z,18.32
2019-05-14T13:22:13.662Z,18.14
2019-05-14T13:24:40.552Z,18.09
2019-05-14T13:27:12.747Z,17.83
2019-05-14T13:29:44.754Z,17.73
2019-05-14T13:32:19.445Z,17.73
2019-05-14T13:34:50.291Z,17.35
2019-05-14T13:37:22.071Z,17.27
2019-05-14T13:39:53.669Z,16.83
2019-05-14T13:42:25.571Z,16.93
2019-05-14T13:44:58.488Z,16.59
2019-05-14T13:47:29.425Z,16.48
2019-05-14T13:50:01.295Z,16.51
2019-05-14T13:52:33.081Z,16.42
2019-05-14T13:55:05.840Z,16.53
2019-05-14T13:57:39.945Z,16.51
2019-05-14T14:00:12.226Z,16.52
2019-05-14T14:02:44.299Z,16.49
2019-05-14T14:05:16.313Z,17.86
2019-05-14T14:07:48.736Z,18.85
2019-05-14T14:10:21.249Z,19.58
2019-05-14T14:12:56.136Z,20.19
2019-05-14T14:15:28.840Z,20.34
2019-05-14T14:18:00.633Z,19.89
2019-05-14T14:20:32.630Z,19.55
2019-05-14T14:23:18.805Z,18.53
2019-05-14T14:25:39.507Z,18.67
2019-05-14T14:28:11.367Z,19.71
2019-05-14T14:30:43.597Z,20.03
2019-05-14T14:33:15.037Z,19.05
2019-05-14T14:35:48.595Z,18.77
2019-05-14T14:38:20.384Z,18.29
2019-05-14T14:40:51.958Z,17.62
2019-05-14T14:43:23.643Z,17.93
2019-05-14T14:45:55.487Z,17.93
2019-05-14T14:48:30.214Z,17.49
2019-05-14T14:51:00.811Z,17.31
2019-05-14T14:53:50.476Z,17.25
2019-05-14T14:56:09.043Z,17.12
2019-05-14T14:58:39.424Z,17.01
2019-05-14T15:01:10.978Z,16.71
2019-05-14T15:03:42.522Z,16.58
2019-05-14T15:06:14.483Z,16.34
2019-05-14T15:08:49.419Z,16.54
2019-05-14T15:11:20.152Z,16.20
2019-05-14T15:13:51.505Z,16.38
2019-05-14T15:16:23.230Z,16.46
2019-05-14T15:18:55.253Z,16.50
2019-05-14T15:21:29.746Z,16.41
2019-05-14T15:24:09.995Z,16.28
2019-05-14T15:26:34.018Z,16.06
2019-05-14T15:29:05.707Z,15.92
2019-05-14T15:31:38.611Z,15.84
2019-05-14T15:34:10.667Z,15.85
2019-05-14T15:36:42.011Z,15.55
2019-05-14T15:39:13.960Z,15.32
2019-05-14T15:41:49.775Z,15.31
2019-05-14T15:44:20.739Z,14.96
2019-05-14T15:46:52.323Z,15.02
2019-05-14T15:49:24.164Z,15.17
2019-05-14T15:51:56.315Z,15.08
2019-05-14T15:54:39.251Z,14.99
2019-05-14T15:57:01.977Z,15.04
2019-05-14T15:59:33.668Z,15.06
2019-05-14T16:02:09.070Z,14.75
2019-05-14T16:04:39.091Z,14.88
2019-05-14T16:07:11.998Z,14.84
2019-05-14T16:09:43.540Z,14.88
2019-05-14T16:12:15.322Z,14.93
2019-05-14T16:14:48.906Z,14.90
2019-05-14T16:17:25.173Z,14.72
2019-05-14T16:19:54.985Z,14.58
2019-05-14T16:22:29.165Z,14.56
2019-05-14T16:25:01.034Z,14.64
2019-05-14T16:27:33.099Z,14.68
2019-05-14T16:30:05.104Z,14.65
2019-05-14T16:32:39.170Z,14.77
2019-05-14T16:35:10.388Z,14.68
2019-05-14T16:37:42.189Z,14.80
2019-05-14T16:40:14.200Z,14.88
2019-05-14T16:42:48.412Z,14.98
2019-05-14T16:45:19.841Z,14.95
2019-05-14T16:47:51.627Z,15.02
2019-05-14T16:50:23.761Z,15.10
2019-05-14T16:52:55.542Z,15.07
2019-05-14T16:55:30.464Z,15.04
2019-05-14T16:58:00.940Z,15.03
2019-05-14T17:00:34.828Z,14.85
2019-05-14T17:03:08.306Z,14.89
2019-05-14T17:05:40.145Z,14.86
2019-05-14T17:08:11.985Z,14.84
2019-05-14T17:10:43.704Z,14.77
2019-05-14T17:13:17.800Z,14.75
2019-05-14T17:15:48.813Z,14.70
2019-05-14T17:18:20.807Z,14.78
2019-05-14T17:20:52.628Z,14.61
2019-05-14T17:23:24.216Z,14.54
2019-05-14T17:25:57.946Z,14.61
2019-05-14T17:28:29.370Z,14.64
2019-05-14T17:31:01.172Z,14.67
2019-05-14T17:33:32.825Z,14.73
2019-05-14T17:36:04.511Z,14.90
2019-05-14T17:38:39.043Z,14.90
2019-05-14T17:41:09.756Z,14.98
2019-05-14T17:43:41.645Z,15.09
2019-05-14T17:46:13.246Z,15.05
2019-05-14T17:48:45.383Z,14.87
2019-05-14T17:51:18.132Z,14.85
2019-05-14T17:53:49.946Z,14.75
2019-05-14T17:56:22.947Z,14.74
2019-05-14T17:58:53.708Z,14.64
2019-05-14T18:01:25.792Z,14.60
2019-05-14T18:03:58.449Z,14.56
2019-05-14T18:06:30.470Z,14.59
2019-05-14T18:09:02.309Z,14.48
2019-05-14T18:11:35.391Z,14.48
2019-05-14T18:14:11.570Z,14.61
2019-05-14T18:16:40.815Z,14.66
2019-05-14T18:19:12.635Z,14.72
2019-05-14T18:21:44.247Z,14.72
2019-05-14T18:24:18.747Z,14.82
2019-05-14T18:26:49.612Z,14.87
2019-05-14T18:29:22.495Z,14.88
2019-05-14T18:31:55.378Z,14.82
2019-05-14T18:34:28.410Z,14.79
2019-05-14T18:37:01.349Z,14.89
2019-05-14T18:39:32.990Z,14.81
2019-05-14T18:42:04.936Z,14.87
2019-05-14T18:44:38.943Z,14.74
2019-05-14T18:47:10.092Z,14.78
2019-05-14T18:49:41.827Z,14.63
2019-05-14T18:52:13.505Z,14.69
2019-05-14T18:54:45.310Z,14.48
2019-05-14T18:57:18.081Z,14.27
2019-05-14T18:59:50.021Z,14.01
2019-05-14T19:02:21.790Z,13.76
2019-05-14T19:04:53.394Z,13.51
2019-05-14T19:07:28.483Z,13.26
2019-05-14T19:09:59.500Z,13.28
2019-05-14T19:12:31.096Z,13.44
2019-05-14T19:15:02.984Z,13.55
2019-05-14T19:17:34.907Z,13.55
2019-05-14T19:20:08.473Z,13.60
2019-05-14T19:22:40.357Z,13.42
2019-05-14T19:25:12.370Z,13.26
2019-05-14T19:27:43.921Z,13.16
2019-05-14T19:30:15.831Z,13.06
2019-05-14T19:32:48.565Z,12.76
2019-05-14T19:35:20.343Z,12.47
2019-05-14T19:37:51.863Z,12.28
2019-05-14T19:40:23.803Z,12.13
2019-05-14T19:42:55.594Z,12.06
2019-05-14T19:45:28.162Z,11.79
2019-05-14T19:47:59.716Z,11.67
2019-05-14T19:50:31.420Z,11.35
2019-05-14T19:53:03.501Z,11.30
2019-05-14T19:55:35.679Z,11.22
2019-05-14T19:58:08.249Z,11.11
2019-05-14T20:00:40.178Z,11.42
2019-05-14T20:03:12.243Z,11.21
2019-05-14T20:05:44.014Z,11.19
2019-05-14T20:08:18.628Z,11.06
2019-05-14T20:10:49.227Z,10.67
2019-05-14T20:13:20.970Z,10.63
2019-05-14T20:15:52.693Z,10.62
2019-05-14T20:18:24.664Z,10.62
2019-05-14T20:20:56.175Z,10.55
2019-05-14T20:23:29.139Z,10.65
2019-05-14T20:26:00.869Z,10.59
2019-05-14T20:28:32.547Z,10.68
2019-05-14T20:31:04.761Z,10.58
2019-05-14T20:33:36.523Z,10.60
2019-05-14T20:36:08.475Z,10.71
2019-05-14T20:38:40.368Z,10.66
2019-05-14T20:41:12.128Z,10.67
2019-05-14T20:43:44.044Z,10.55
2019-05-14T20:46:18.353Z,10.65
2019-05-14T20:48:49.302Z,10.62
2019-05-14T20:51:21.336Z,10.55
2019-05-14T20:53:53.160Z,10.58
2019-05-14T20:56:24.856Z,10.41
2019-05-14T20:58:58.789Z,10.64
2019-05-14T21:01:29.937Z,10.52
2019-05-14T21:04:01.559Z,10.24
2019-05-14T21:06:33.323Z,10.08
2019-05-14T21:09:05.603Z,10.07
2019-05-14T21:11:38.437Z,10.07
2019-05-14T21:14:11.504Z,9.99
2019-05-14T21:16:43.195Z,9.98
2019-05-14T21:19:14.768Z,10.00
2019-05-14T21:21:48.733Z,9.87
2019-05-14T21:24:21.909Z,9.63
2019-05-14T21:26:54.788Z,9.66
2019-05-14T21:29:30.312Z,9.61
2019-05-14T21:32:01.578Z,9.83
2019-05-14T21:34:33.591Z,10.02
2019-05-14T21:37:05.532Z,10.02
2019-05-14T21:39:38.282Z,9.98
2019-05-14T21:42:11.105Z,10.10
2019-05-14T21:44:42.497Z,10.13
2019-05-14T21:47:14.280Z,10.07
2019-05-14T21:49:48.285Z,10.00
2019-05-14T21:52:19.308Z,9.77
2019-05-14T21:54:51.046Z,9.69
2019-05-14T21:57:22.740Z,9.74
2019-05-14T21:59:54.256Z,9.59
2019-05-14T22:02:29.856Z,9.60
2019-05-14T22:05:01.542Z,9.76
2019-05-14T22:07:33.910Z,9.77
2019-05-14T22:10:06.467Z,9.69
2019-05-14T22:12:39.409Z,9.68
2019-05-14T22:15:11.450Z,9.70
2019-05-14T22:17:43.238Z,9.69
2019-05-14T22:20:15.292Z,9.62
2019-05-14T22:22:48.372Z,9.53
2019-05-14T22:25:20.119Z,9.48
2019-05-14T22:27:51.666Z,9.60
2019-05-14T22:30:23.632Z,9.54
2019-05-14T22:32:55.262Z,9.58
2019-05-14T22:35:30.782Z,9.60
2019-05-14T22:38:00.139Z,9.68
2019-05-14T22:40:31.755Z,9.87
2019-05-14T22:43:03.251Z,9.92
2019-05-14T22:45:34.937Z,9.84
2019-05-14T22:48:09.163Z,9.65
2019-05-14T22:50:41.423Z,9.65
2019-05-14T22:53:14.466Z,9.67
2019-05-14T22:55:46.324Z,9.33
2019-05-14T22:58:25.448Z,9.27
2019-05-14T23:01:01.520Z,9.36
2019-05-14T23:03:23.542Z,9.22
2019-05-14T23:05:55.307Z,9.13
2019-05-14T23:08:26.680Z,9.15
2019-05-14T23:10:58.929Z,9.10
2019-05-14T23:13:30.649Z,9.15
2019-05-14T23:16:02.354Z,9.22
2019-05-14T23:18:33.937Z,8.88
2019-05-14T23:21:05.440Z,8.83
2019-05-14T23:23:39.238Z,8.89
2019-05-14T23:26:10.837Z,8.95
2019-05-14T23:28:45.755Z,9.00
2019-05-14T23:31:17.249Z,8.98
2019-05-14T23:33:49.122Z,9.06
2019-05-14T23:36:20.910Z,9.08
2019-05-14T23:38:52.844Z,9.21
2019-05-14T23:41:24.767Z,9.25
2019-05-14T23:43:56.553Z,9.18
2019-05-14T23:46:29.183Z,9.10
2019-05-14T23:49:01.215Z,9.07
2019-05-14T23:51:32.994Z,9.13
2019-05-14T23:54:04.738Z,9.05
2019-05-14T23:56:38.375Z,9.11
2019-05-14T23:59:10.172Z,9.21
